Time;durP1;ratioP1;P1;durP2;ratioP2;P2;SDS_P1;SDS_P2;PMS_P1;PMS_P2;Temp;Humidity;BMP_temperature;BMP_pressure;BME280_temperature;BME280_humidity;BME280_pressure;Samples;Min_cycle;Max_cycle;Signal;HPM_P1;HPM_P2
2021/11/25 00:02:36;;;;;;;;;20.50;17.25;;;;;12.55;78.29;101689.22;146607;588;46021;-82
2021/11/25 00:05:29;;;;;;;;;18.00;16.75;;;;;12.57;78.04;101693.72;146610;657;46010;-83
2021/11/25 00:08:21;;;;;;;;;19.25;18.25;;;;;12.57;77.92;101696.31;146603;621;47014;-83
2021/11/25 00:11:13;;;;;;;;;21.00;19.25;;;;;12.60;77.87;101700.81;146606;612;46010;-78
2021/11/25 00:14:06;;;;;;;;;24.00;21.00;;;;;12.62;78.01;101697.50;146606;595;46017;-78
2021/11/25 00:16:58;;;;;;;;;31.00;28.75;;;;;11.66;77.69;101520.19;146607;587;46021;-79
2021/11/25 00:19:50;;;;;;;;;34.00;31.00;;;;;12.63;78.29;101691.47;146605;591;46016;-78
2021/11/25 00:22:43;;;;;;;;;30.25;27.00;;;;;12.60;78.22;101700.81;146606;664;46021;-78
2021/11/25 00:25:36;;;;;;;;;29.25;22.50;;;;;12.55;78.55;101700.53;146608;583;45913;-78
2021/11/25 00:28:28;;;;;;;;;26.75;24.00;;;;;12.47;78.52;101694.00;146606;592;46020;-76
2021/11/25 00:31:19;;;;;;;;;30.50;25.75;;;;;12.40;78.77;101689.25;146606;593;46016;-76
2021/11/25 00:34:11;;;;;;;;;22.50;21.00;;;;;12.34;79.02;101694.09;146607;618;46010;-79
2021/11/25 00:37:03;;;;;;;;;21.75;19.50;;;;;12.24;79.14;101684.81;146604;593;46017;-77
2021/11/25 00:39:56;;;;;;;;;19.00;16.75;;;;;12.17;79.24;101683.53;146609;608;46010;-77
2021/11/25 00:42:48;;;;;;;;;20.50;19.00;;;;;12.08;79.16;101680.41;146605;718;46016;-78
2021/11/25 00:45:40;;;;;;;;;22.50;19.50;;;;;12.00;79.22;101673.84;146608;570;47014;-78
2021/11/25 00:48:33;;;;;;;;;20.00;17.50;;;;;11.94;79.15;101678.69;146606;600;46913;-78
2021/11/25 00:51:25;;;;;;;;;18.25;18.25;;;;;11.93;79.85;101687.25;146610;601;46011;-77
2021/11/25 00:54:17;;;;;;;;;15.75;14.50;;;;;11.91;79.45;101684.59;146605;582;46033;-77
2021/11/25 00:57:09;;;;;;;;;18.00;16.00;;;;;11.89;79.44;101687.87;146607;655;46020;-77
2021/11/25 01:00:01;;;;;;;;;15.75;15.25;;;;;11.88;79.79;101687.00;146607;572;45914;-78
2021/11/25 01:02:55;;;;;;;;;16.75;16.25;;;;;11.87;79.66;101684.28;146606;583;46020;-78
2021/11/25 01:05:47;;;;;;;;;16.50;15.25;;;;;11.81;79.79;101687.41;146603;598;46016;-79
2021/11/25 01:08:39;;;;;;;;;13.25;12.00;;;;;11.78;79.26;101667.31;146610;664;46010;-81
2021/11/25 01:11:31;;;;;;;;;16.50;15.50;;;;;11.74;79.16;101675.72;146607;569;46012;-78
2021/11/25 01:14:23;;;;;;;;;20.50;14.00;;;;;11.65;79.11;101664.78;146611;635;46010;-78
2021/11/25 01:17:17;;;;;;;;;16.50;12.50;;;;;11.61;79.21;101677.47;146607;580;46012;-78
2021/11/25 01:20:14;;;;;;;;;16.25;12.00;;;;;10.42;79.09;101479.69;146609;584;46010;-81
2021/11/25 01:23:10;;;;;;;;;11.25;11.25;;;;;11.44;78.79;101672.12;146601;588;47014;-82
2021/11/25 01:26:03;;;;;;;;;15.00;15.00;;;;;11.39;79.32;101678.72;146609;732;46020;-81
2021/11/25 01:28:55;;;;;;;;;14.50;14.50;;;;;11.37;79.27;101676.81;146603;688;47015;-81
2021/11/25 01:31:47;;;;;;;;;18.75;14.75;;;;;11.35;79.39;101670.66;146607;576;46010;-81
2021/11/25 01:34:39;;;;;;;;;12.25;10.75;;;;;11.35;79.68;101668.06;146604;572;46030;-82
2021/11/25 01:37:33;;;;;;;;;14.75;12.50;;;;;11.37;80.24;101669.03;146611;585;45021;-83
2021/11/25 01:40:26;;;;;;;;;12.75;12.00;;;;;11.40;79.94;101664.94;146606;656;46016;-78
2021/11/25 01:43:22;;;;;;;;;12.00;9.25;;;;;11.40;79.86;101662.34;146607;686;46020;-79
2021/11/25 01:46:19;;;;;;;;;11.00;10.00;;;;;11.41;79.93;101664.13;146606;578;47012;-78
2021/11/25 01:49:12;;;;;;;;;12.00;10.00;;;;;11.41;79.95;101668.44;146607;664;46020;-81
2021/11/25 01:52:04;;;;;;;;;14.00;12.25;;;;;11.40;79.81;101664.03;146604;575;46025;-84
2021/11/25 01:54:56;;;;;;;;;14.25;10.75;;;;;11.40;79.95;101658.81;146606;615;46020;-85
2021/11/25 01:57:49;;;;;;;;;13.25;11.50;;;;;11.41;80.25;101653.75;146606;579;46016;-85
2021/11/25 02:00:55;;;;;;;;;13.75;11.75;;;;;11.45;80.03;101654.84;146610;676;45030;-79
2021/11/25 02:03:48;;;;;;;;;14.25;13.25;;;;;11.50;79.73;101650.84;146603;577;46016;-77
2021/11/25 02:06:40;;;;;;;;;16.25;13.75;;;;;11.53;80.13;101649.31;146607;566;46021;-78
2021/11/25 02:09:33;;;;;;;;;16.25;15.00;;;;;11.54;79.81;101651.09;146606;597;46012;-79
2021/11/25 02:12:25;;;;;;;;;17.00;14.25;;;;;11.59;79.75;101650.47;146608;583;46020;-79
2021/11/25 02:15:18;;;;;;;;;13.75;12.50;;;;;11.66;79.68;101643.19;146607;577;46017;-79
2021/11/25 02:18:13;;;;;;;;;10.00;9.00;;;;;11.76;79.29;101655.03;146607;640;46010;-79
2021/11/25 02:21:07;;;;;;;;;14.00;11.00;;;;;11.85;nan;101654.72;146605;631;46016;-79
2021/11/25 02:24:00;;;;;;;;;11.50;11.50;;;;;11.92;78.53;101649.09;146607;657;46010;-80
2021/11/25 02:26:52;;;;;;;;;15.00;11.75;;;;;11.98;78.42;101655.56;146606;591;46012;-85
2021/11/25 02:29:44;;;;;;;;;19.25;14.50;;;;;12.05;78.11;101648.13;146607;574;46020;-89
2021/11/25 02:32:45;;;;;;;;;15.75;13.25;;;;;12.10;78.21;101649.31;146607;610;46016;-86
2021/11/25 02:35:40;;;;;;;;;14.25;13.00;;;;;12.14;78.03;101648.69;146606;636;47015;-89
2021/11/25 02:38:32;;;;;;;;;17.25;17.00;;;;;12.17;77.66;101646.25;146606;622;46014;-86
2021/11/25 02:41:24;;;;;;;;;11.50;10.50;;;;;12.16;76.84;101640.16;146606;600;46010;-82
2021/11/25 02:44:17;;;;;;;;;17.25;14.75;;;;;12.17;76.30;101644.53;146604;587;46017;-77
2021/11/25 02:47:09;;;;;;;;;14.50;12.25;;;;;12.18;76.62;101645.44;146609;563;46014;-77
2021/11/25 02:50:01;;;;;;;;;13.25;13.25;;;;;12.17;76.19;101641.06;146607;578;46017;-76
2021/11/25 02:52:53;;;;;;;;;13.50;12.25;;;;;12.18;76.10;101643.75;146610;600;46010;-77
2021/11/25 02:55:45;;;;;;;;;11.50;10.75;;;;;12.19;76.48;101636.84;146603;573;46016;-79
2021/11/25 02:58:38;;;;;;;;;14.50;10.75;;;;;12.20;75.43;101642.12;146607;571;46021;-79
2021/11/25 03:01:37;;;;;;;;;13.50;11.00;;;;;12.21;75.96;101643.03;146600;563;47012;-81
2021/11/25 03:04:29;;;;;;;;;16.00;14.75;;;;;12.23;76.04;101642.31;146609;592;46020;-76
2021/11/25 03:07:21;;;;;;;;;14.50;13.00;;;;;12.24;76.12;101643.22;146601;635;47014;-81
2021/11/25 03:10:13;;;;;;;;;13.00;10.75;;;;;12.24;76.78;101645.81;146609;699;46031;-78
2021/11/25 03:13:07;;;;;;;;;14.50;10.00;;;;;12.25;76.37;101642.41;146604;608;46914;-82
2021/11/25 03:15:59;;;;;;;;;13.25;11.25;;;;;12.23;76.32;101642.31;146608;571;46010;-81
2021/11/25 03:18:52;;;;;;;;;11.25;10.25;;;;;12.24;76.31;101635.41;146607;590;46012;-83
2021/11/25 03:21:44;;;;;;;;;10.50;9.50;;;;;12.23;76.14;101633.63;146607;566;46020;-84
2021/11/25 03:24:36;;;;;;;;;8.75;8.75;;;;;12.23;76.23;101634.50;146605;584;46016;-81
2021/11/25 03:27:29;;;;;;;;;10.25;9.25;;;;;12.21;76.01;101633.53;146609;739;46011;-81
2021/11/25 03:30:21;;;;;;;;;12.00;10.75;;;;;12.22;76.21;101635.31;146605;573;46914;-77
2021/11/25 03:33:15;;;;;;;;;16.25;15.00;;;;;12.20;76.08;101623.94;146609;622;46010;-73
2021/11/25 03:36:09;;;;;;;;;12.25;11.25;;;;;12.21;76.57;101625.75;146604;596;46017;-76
2021/11/25 03:39:01;;;;;;;;;17.00;15.00;;;;;12.22;76.23;101627.53;146609;741;46020;-75
2021/11/25 03:41:53;;;;;;;;;13.00;12.75;;;;;12.21;76.42;101630.03;146606;572;46015;-75
2021/11/25 03:44:46;;;;;;;;;15.00;13.00;;;;;12.19;76.36;101635.16;146605;627;46021;-74
2021/11/25 03:47:41;;;;;;;;;14.75;12.00;;;;;12.15;76.55;101637.47;146602;609;47014;-76
2021/11/25 03:50:33;;;;;;;;;11.25;9.25;;;;;12.10;76.83;101623.31;146608;636;46021;-76
2021/11/25 03:53:25;;;;;;;;;13.25;10.25;;;;;12.06;77.10;101616.16;146608;590;45016;-73
2021/11/25 03:56:18;;;;;;;;;15.00;11.00;;;;;11.98;77.35;101616.56;146607;565;46020;-73
2021/11/25 03:59:10;;;;;;;;;10.00;10.00;;;;;11.94;78.08;101617.19;146604;576;46017;-73
2021/11/25 04:02:03;;;;;;;;;14.00;11.25;;;;;11.92;77.97;101620.50;146610;664;45040;-74
2021/11/25 04:04:55;;;;;;;;;9.25;9.00;;;;;11.89;77.89;101623.81;146608;590;46012;-75
2021/11/25 04:07:48;;;;;;;;;10.50;10.50;;;;;11.87;77.78;101629.72;146608;609;46020;-74
2021/11/25 04:10:41;;;;;;;;;13.75;10.50;;;;;11.85;78.41;101640.03;146606;585;46012;-74
2021/11/25 04:13:33;;;;;;;;;15.50;12.25;;;;;11.84;78.24;101638.22;146608;658;46020;-76
2021/11/25 04:16:25;;;;;;;;;12.75;11.00;;;;;11.84;78.25;101634.69;146604;579;46016;-83
2021/11/25 04:19:17;;;;;;;;;13.00;11.50;;;;;11.86;78.83;101634.03;146607;579;46010;-78
2021/11/25 04:22:09;;;;;;;;;7.75;7.75;;;;;11.88;77.92;101642.81;146604;615;46016;-78
2021/11/25 04:25:01;;;;;;;;;14.50;11.75;;;;;11.87;78.18;101643.63;146607;565;46010;-78
2021/11/25 04:27:53;;;;;;;;;15.00;14.00;;;;;11.88;78.44;101645.41;146604;565;46014;-77
2021/11/25 04:30:52;;;;;;;;;12.75;11.75;;;;;11.90;78.05;101640.28;146609;595;46020;-77
2021/11/25 04:36:55;;;;;;;;;12.50;11.25;;;;;11.93;77.57;101644.00;146607;644;46014;-77
2021/11/25 04:39:47;;;;;;;;;13.50;13.00;;;;;11.93;77.10;101638.81;146605;576;46017;-78
2021/11/25 04:42:40;;;;;;;;;14.00;11.75;;;;;11.91;77.34;101634.31;146606;573;46021;-78
2021/11/25 04:45:32;;;;;;;;;13.25;13.00;;;;;11.91;77.43;101635.22;146608;621;45016;-80
2021/11/25 04:48:26;;;;;;;;;16.25;14.50;;;;;11.91;78.17;101647.31;146607;600;46020;-78
2021/11/25 04:51:18;;;;;;;;;16.25;15.00;;;;;11.92;77.84;101641.28;146606;685;47012;-77
2021/11/25 04:54:10;;;;;;;;;18.50;13.00;;;;;11.91;77.87;101636.91;146608;614;46010;-76
2021/11/25 04:57:02;;;;;;;;;16.25;12.75;;;;;11.93;78.49;101646.59;146605;572;46017;-75
2021/11/25 04:59:54;;;;;;;;;15.75;14.50;;;;;11.92;78.62;101642.19;146609;565;46020;-75
2021/11/25 05:02:46;;;;;;;;;17.50;14.00;;;;;11.91;78.17;101645.59;146607;601;46012;-77
2021/11/25 05:05:39;;;;;;;;;12.25;11.25;;;;;11.90;78.03;101648.09;146609;581;45021;-77
2021/11/25 05:08:31;;;;;;;;;14.75;11.50;;;;;11.86;78.37;101652.22;146605;568;47014;-77
2021/11/25 05:11:23;;;;;;;;;14.50;11.75;;;;;11.82;78.16;101636.31;146610;708;46010;-76
2021/11/25 05:14:16;;;;;;;;;15.00;13.25;;;;;11.77;78.09;101649.94;146604;599;46913;-80
2021/11/25 05:17:08;;;;;;;;;15.75;15.25;;;;;11.74;78.03;101649.75;146609;581;46010;-80
2021/11/25 05:20:00;;;;;;;;;17.25;13.75;;;;;11.73;78.31;101653.13;146606;629;46016;-78
2021/11/25 05:22:53;;;;;;;;;15.50;13.00;;;;;11.72;78.06;101646.16;146609;597;46010;-81
2021/11/25 05:25:47;;;;;;;;;15.75;13.50;;;;;11.73;78.63;101645.34;146603;569;47013;-77
2021/11/25 05:28:39;;;;;;;;;15.50;14.00;;;;;11.73;78.43;101647.94;146607;612;46020;-78
2021/11/25 05:31:32;;;;;;;;;18.25;15.50;;;;;11.72;78.33;101650.47;146604;641;46032;-78
2021/11/25 05:34:24;;;;;;;;;18.50;15.00;;;;;11.71;77.43;101654.75;146609;569;46020;-81
2021/11/25 05:37:21;;;;;;;;;20.00;17.75;;;;;11.71;77.70;101653.84;146606;638;46014;-80
2021/11/25 05:40:15;;;;;;;;;16.50;15.25;;;;;11.44;78.32;101606.31;146608;569;46010;-83
2021/11/25 05:43:08;;;;;;;;;16.25;15.25;;;;;11.74;78.36;101644.56;146605;626;46913;-80
2021/11/25 05:46:00;;;;;;;;;16.00;13.75;;;;;11.80;78.42;101649.19;146611;565;45030;-81
2021/11/25 05:48:53;;;;;;;;;17.25;15.00;;;;;11.83;78.28;101651.09;146604;574;46914;-84
2021/11/25 05:51:45;;;;;;;;;17.50;15.25;;;;;11.86;78.57;101652.22;146610;634;45021;-86
2021/11/25 05:54:37;;;;;;;;;17.00;15.00;;;;;11.88;78.91;101657.50;146605;670;46024;-75
2021/11/25 05:57:30;;;;;;;;;23.00;19.00;;;;;11.90;78.39;101659.41;146604;681;46021;-80
2021/11/25 06:00:22;;;;;;;;;25.50;21.75;;;;;11.92;78.41;101659.50;146604;592;46016;-77
2021/11/25 06:03:14;;;;;;;;;22.75;19.00;;;;;11.95;78.86;101663.16;146609;652;46010;-78
2021/11/25 06:06:07;;;;;;;;;23.75;18.75;;;;;11.97;78.75;101664.16;146607;573;46016;-77
2021/11/25 06:08:59;;;;;;;;;21.00;17.00;;;;;11.99;78.19;101662.56;146609;569;45913;-78
2021/11/25 06:11:51;;;;;;;;;16.75;16.25;;;;;12.01;77.94;101658.34;146604;581;46914;-79
2021/11/25 06:14:43;;;;;;;;;17.50;17.50;;;;;12.01;77.92;101663.53;146610;565;45031;-77
2021/11/25 06:17:36;;;;;;;;;20.25;18.00;;;;;12.02;78.26;101665.34;146605;674;46016;-78
2021/11/25 06:20:29;;;;;;;;;22.50;20.50;;;;;12.08;78.27;101670.00;146606;650;46020;-77
2021/11/25 06:23:21;;;;;;;;;25.00;23.50;;;;;12.14;78.35;101670.38;146607;569;46012;-77
2021/11/25 06:26:13;;;;;;;;;37.75;33.00;;;;;12.19;78.25;101674.16;146609;584;45021;-76
2021/11/25 06:29:06;;;;;;;;;32.75;31.00;;;;;12.22;78.73;101670.84;146606;600;46034;-76
2021/11/25 06:31:57;;;;;;;;;44.75;34.75;;;;;12.27;78.71;101677.19;146609;596;45021;-76
2021/11/25 06:34:50;;;;;;;;;35.00;30.75;;;;;12.33;78.54;101674.94;146604;609;46017;-75
2021/11/25 06:37:46;;;;;;;;;37.50;33.25;;;;;12.39;78.50;101672.72;146608;593;46010;-76
2021/11/25 06:40:39;;;;;;;;;44.00;34.50;;;;;12.46;78.34;101666.16;146604;582;46017;-78
2021/11/25 06:43:31;;;;;;;;;37.50;34.00;;;;;12.53;77.80;101664.84;146608;589;46020;-79
2021/11/25 06:46:24;;;;;;;;;42.25;33.75;;;;;12.57;77.44;101665.09;146606;604;46012;-80
2021/11/25 06:49:16;;;;;;;;;38.25;32.50;;;;;12.66;77.19;101664.75;146607;616;46026;-76
2021/11/25 06:52:09;;;;;;;;;42.50;32.50;;;;;12.71;76.96;101663.31;146604;573;46913;-76
2021/11/25 06:55:01;;;;;;;;;37.25;31.00;;;;;12.76;76.69;101664.44;146608;594;46014;-75
2021/11/25 06:57:54;;;;;;;;;38.25;33.25;;;;;12.81;76.37;101667.34;146604;611;46913;-75
2021/11/25 07:00:47;;;;;;;;;40.00;31.00;;;;;12.84;76.09;101680.53;146607;749;46020;-76
2021/11/25 07:03:39;;;;;;;;;29.00;26.25;;;;;12.86;76.04;101682.38;146605;614;46017;-75
2021/11/25 07:06:31;;;;;;;;;34.50;30.75;;;;;12.89;75.98;101684.25;146608;635;46020;-75
2021/11/25 07:09:23;;;;;;;;;37.25;29.00;;;;;12.91;75.83;101687.87;146608;629;45017;-74
2021/11/25 07:12:16;;;;;;;;;29.50;28.75;;;;;12.91;75.30;101680.06;146610;577;46010;-74
2021/11/25 07:15:09;;;;;;;;;31.75;24.50;;;;;12.92;75.34;101692.25;146604;621;46913;-75
2021/11/25 07:18:01;;;;;;;;;31.00;28.25;;;;;12.92;75.43;101698.34;146606;602;46021;-80
2021/11/25 07:20:53;;;;;;;;;35.00;31.00;;;;;12.91;75.34;101693.97;146602;564;46029;-80
2021/11/25 07:23:45;;;;;;;;;56.25;43.00;;;;;12.94;75.88;101696.75;146608;564;46021;-73
2021/11/25 07:26:37;;;;;;;;;44.75;37.25;;;;;12.98;75.58;101694.31;146607;687;46012;-76
2021/11/25 07:29:30;;;;;;;;;37.75;31.50;;;;;12.98;75.49;101689.09;146608;595;46020;-88
2021/11/25 07:32:24;;;;;;;;;18.75;17.00;;;;;12.99;75.67;101690.87;146607;565;46013;-81
2021/11/25 07:35:20;;;;;;;;;22.75;18.75;;;;;13.04;75.98;101684.25;146606;620;46010;-83
2021/11/25 07:38:12;;;;;;;;;24.00;20.25;;;;;13.11;76.92;101683.78;146604;569;46024;-83
2021/11/25 07:41:05;;;;;;;;;26.50;24.25;;;;;13.20;76.48;101696.41;146610;566;46010;-82
2021/11/25 07:43:57;;;;;;;;;27.25;25.50;;;;;13.26;76.12;101699.41;146603;635;47014;-82
2021/11/25 07:46:49;;;;;;;;;25.75;23.50;;;;;13.30;75.25;101699.69;146608;577;46010;-84
2021/11/25 07:49:42;;;;;;;;;30.00;25.00;;;;;13.33;74.68;101699.84;146606;603;46012;-81
2021/11/25 07:52:34;;;;;;;;;37.25;33.00;;;;;13.35;73.20;101693.00;146606;565;46020;-84
2021/11/25 07:55:27;;;;;;;;;23.75;22.75;;;;;13.38;74.16;101705.28;146605;594;46012;-81
2021/11/25 07:58:20;;;;;;;;;24.25;23.25;;;;;13.40;74.57;101695.88;146606;570;46020;-75
2021/11/25 08:01:12;;;;;;;;;30.25;27.75;;;;;13.43;73.48;101703.84;146606;573;46012;-84
2021/11/25 08:04:06;;;;;;;;;47.75;34.50;;;;;13.44;74.33;101692.62;146608;586;46010;-85
2021/11/25 08:06:58;;;;;;;;;48.25;35.25;;;;;13.42;74.08;101695.94;146604;573;46914;-81
2021/11/25 08:09:50;;;;;;;;;37.00;32.50;;;;;13.40;73.93;101696.75;146603;576;46021;-83
2021/11/25 08:12:43;;;;;;;;;39.00;33.50;;;;;13.36;74.23;101696.50;146605;628;46012;-83
2021/11/25 08:15:36;;;;;;;;;35.00;30.25;;;;;13.31;74.29;101697.97;146605;569;46021;-81
2021/11/25 08:18:28;;;;;;;;;34.25;31.00;;;;;13.29;74.41;101684.84;146605;647;46012;-82
2021/11/25 08:21:22;;;;;;;;;28.00;23.00;;;;;13.32;77.12;101686.72;146606;590;47010;-83
2021/11/25 08:24:14;;;;;;;;;27.50;25.25;;;;;13.39;75.08;101688.84;146607;567;46012;-81
2021/11/25 08:27:07;;;;;;;;;24.50;23.50;;;;;13.42;71.50;101689.00;146606;602;46020;-79
2021/11/25 08:29:59;;;;;;;;;25.75;24.25;;;;;13.40;72.59;101691.56;146604;575;46017;-79
2021/11/25 08:32:51;;;;;;;;;33.75;28.00;;;;;13.38;72.60;101681.84;146607;597;46020;-79
2021/11/25 08:35:43;;;;;;;;;27.75;25.25;;;;;13.36;73.10;101676.56;146604;602;46016;-79
2021/11/25 08:38:35;;;;;;;;;28.25;27.25;;;;;13.37;72.57;101669.66;146608;582;46010;-79
2021/11/25 08:41:28;;;;;;;;;25.25;22.00;;;;;13.37;73.14;101665.34;146605;563;47014;-78
2021/11/25 08:44:19;;;;;;;;;25.25;24.00;;;;;13.39;73.39;101654.97;146608;611;46010;-78
2021/11/25 08:47:11;;;;;;;;;22.75;21.00;;;;;13.42;73.41;101655.16;146606;635;46914;-79
2021/11/25 08:50:04;;;;;;;;;33.50;27.50;;;;;12.50;72.59;101478.25;146610;577;46010;-79
2021/11/25 08:52:56;;;;;;;;;27.25;25.25;;;;;13.49;72.51;101649.47;146603;595;46037;-79
2021/11/25 08:55:49;;;;;;;;;26.50;20.50;;;;;13.55;73.00;101633.25;146608;627;46010;-80
2021/11/25 08:58:42;;;;;;;;;24.25;22.75;;;;;13.60;73.05;101630.09;146605;607;46017;-79
2021/11/25 09:01:34;;;;;;;;;26.50;23.00;;;;;13.68;72.90;101627.91;146611;631;45021;-78
2021/11/25 09:04:27;;;;;;;;;26.25;24.00;;;;;13.76;72.09;101623.09;146605;565;46016;-79
2021/11/25 09:07:20;;;;;;;;;27.50;23.50;;;;;13.82;72.40;101618.19;146610;617;45021;-79
2021/11/25 09:10:13;;;;;;;;;29.50;25.25;;;;;13.89;71.37;101612.47;146606;573;46012;-79
2021/11/25 09:13:06;;;;;;;;;15.00;10.50;;;;;13.94;71.47;101608.41;146607;564;46020;-79
2021/11/25 09:15:59;;;;;;;;;22.00;19.25;;;;;13.98;71.65;101612.06;146607;578;46016;-79
2021/11/25 09:18:51;;;;;;;;;12.75;11.75;;;;;13.96;70.55;101612.00;146604;572;46020;-79
2021/11/25 09:21:45;;;;;;;;;21.50;17.25;;;;;13.95;70.84;101610.19;146604;611;46016;-78
2021/11/25 09:24:37;;;;;;;;;10.75;9.25;;;;;13.95;70.62;101598.84;146607;563;46020;-79
2021/11/25 09:27:29;;;;;;;;;19.00;14.00;;;;;13.96;70.29;101588.53;146604;639;46016;-79
2021/11/25 09:30:21;;;;;;;;;15.00;13.75;;;;;14.00;70.05;101594.78;146608;605;46021;-79
2021/11/25 09:33:13;;;;;;;;;21.50;19.50;;;;;14.04;70.43;101586.28;146608;647;46012;-78
2021/11/25 09:36:05;;;;;;;;;23.00;19.25;;;;;14.08;70.48;101581.31;146608;596;46020;-79
2021/11/25 09:38:59;;;;;;;;;20.50;19.00;;;;;14.08;69.95;101581.31;146604;575;46016;-78
2021/11/25 09:41:52;;;;;;;;;26.25;23.00;;;;;14.06;68.12;101595.09;146606;588;46020;-79
2021/11/25 09:44:44;;;;;;;;;26.00;22.00;;;;;14.03;69.84;101582.78;146604;564;47015;-78
2021/11/25 09:47:37;;;;;;;;;24.25;21.50;;;;;14.06;70.78;101575.13;146610;595;46010;-79
2021/11/25 09:50:32;;;;;;;;;16.25;15.00;;;;;14.09;69.54;101575.28;146607;565;46016;-79
2021/11/25 09:53:26;;;;;;;;;18.00;17.75;;;;;14.12;69.01;101571.06;146607;597;46014;-79
2021/11/25 09:56:20;;;;;;;;;23.25;20.50;;;;;14.12;67.75;101574.56;146605;643;46016;-78
2021/11/25 09:59:13;;;;;;;;;26.25;23.50;;;;;14.14;69.23;101566.78;146610;600;46011;-79
2021/11/25 10:02:05;;;;;;;;;23.50;19.75;;;;;14.18;69.87;101563.53;146606;564;46016;-79
2021/11/25 10:04:57;;;;;;;;;30.25;26.00;;;;;14.24;69.63;101563.84;146608;592;46010;-78
2021/11/25 10:07:49;;;;;;;;;26.25;22.00;;;;;14.27;68.64;101566.59;146606;616;46013;-79
2021/11/25 10:10:42;;;;;;;;;23.75;22.25;;;;;14.28;69.59;101555.34;146606;640;46020;-79
2021/11/25 10:13:55;;;;;;;;;21.50;19.00;;;;;14.32;69.64;101555.53;146606;640;45017;-79
2021/11/25 10:16:52;;;;;;;;;21.75;19.00;;;;;14.39;70.06;101561.06;146610;664;46014;-78
2021/11/25 10:19:44;;;;;;;;;19.50;17.25;;;;;14.43;68.68;101552.59;146601;572;46020;-79
2021/11/25 10:22:36;;;;;;;;;19.25;16.75;;;;;14.46;67.97;101548.41;146606;613;46021;-78
2021/11/25 10:25:44;;;;;;;;;14.25;14.25;;;;;14.52;67.99;101547.84;146606;591;46913;-78
2021/11/25 10:28:57;;;;;;;;;20.00;17.00;;;;;14.55;69.04;101530.62;146609;589;46014;-78
2021/11/25 10:31:49;;;;;;;;;12.25;11.25;;;;;14.61;67.47;101530.03;146607;592;46012;-78
2021/11/25 10:34:53;;;;;;;;;14.50;12.75;;;;;14.68;67.56;101539.03;146609;715;45020;-79
2021/11/25 10:38:23;;;;;;;;;22.75;20.50;;;;;14.78;67.79;101534.31;146608;679;45914;-79
2021/11/25 10:41:22;;;;;;;;;15.00;14.25;;;;;14.85;67.93;101519.81;146607;600;46020;-79
2021/11/25 10:44:26;;;;;;;;;20.25;19.00;;;;;14.94;67.97;101521.97;146608;669;46013;-79
2021/11/25 10:47:25;;;;;;;;;26.00;21.50;;;;;15.02;67.85;101521.50;146606;613;46021;-77
2021/11/25 10:50:19;;;;;;;;;19.75;19.75;;;;;15.10;67.00;101513.12;146608;670;46012;-77
2021/11/25 10:53:13;;;;;;;;;19.00;18.50;;;;;15.11;65.76;101499.22;146608;580;46014;-76
2021/11/25 10:56:11;;;;;;;;;16.75;14.00;;;;;15.18;66.31;101512.66;146607;589;45016;-77
2021/11/25 10:59:04;;;;;;;;;17.25;17.25;;;;;15.20;66.06;101515.31;146608;688;46011;-76
2021/11/25 11:01:56;;;;;;;;;18.50;16.00;;;;;15.24;66.37;101515.53;146606;578;46014;-76
2021/11/25 11:04:52;;;;;;;;;13.25;11.50;;;;;15.26;65.75;101507.75;146609;601;46010;-75
2021/11/25 11:07:46;;;;;;;;;11.25;11.00;;;;;15.28;65.24;101500.88;146605;622;47014;-76
2021/11/25 11:10:38;;;;;;;;;10.25;8.00;;;;;15.33;65.43;101490.66;146606;665;46010;-79
2021/11/25 11:13:37;;;;;;;;;10.50;9.25;;;;;15.32;64.92;101489.72;146603;569;47012;-76
2021/11/25 11:16:31;;;;;;;;;16.50;16.50;;;;;15.29;65.51;101488.72;146608;637;46010;-79
2021/11/25 11:19:23;;;;;;;;;18.50;15.75;;;;;15.25;65.11;101490.28;146606;677;46012;-76
2021/11/25 11:22:16;;;;;;;;;14.25;13.25;;;;;15.18;65.88;101481.31;146609;570;46010;-76
2021/11/25 11:25:10;;;;;;;;;14.50;11.50;;;;;15.16;65.81;101482.06;146605;650;46012;-78
2021/11/25 11:28:02;;;;;;;;;15.25;15.25;;;;;15.17;65.90;101486.44;146607;588;46010;-78
2021/11/25 11:30:55;;;;;;;;;28.00;26.50;;;;;15.17;65.49;101482.13;146605;640;46029;-77
2021/11/25 11:33:47;;;;;;;;;26.50;24.75;;;;;15.19;65.96;101483.06;146608;575;46010;-77
2021/11/25 11:36:49;;;;;;;;;29.00;25.75;;;;;15.17;65.98;101487.34;146605;588;46914;-77
2021/11/25 11:39:43;;;;;;;;;51.25;41.00;;;;;15.15;64.56;101480.28;146606;648;46028;-78
2021/11/25 11:42:36;;;;;;;;;29.50;27.50;;;;;15.12;65.20;101491.47;146606;659;47012;-77
2021/11/25 11:45:30;;;;;;;;;25.25;23.00;;;;;15.09;65.59;101486.09;146609;595;46010;-77
2021/11/25 11:48:23;;;;;;;;;22.75;19.75;;;;;15.07;65.64;101482.53;146605;614;46012;-76
2021/11/25 11:51:21;;;;;;;;;18.00;18.00;;;;;15.06;65.63;101475.53;146609;569;46010;-77
2021/11/25 11:54:23;;;;;;;;;69.00;52.75;;;;;15.02;65.58;101466.66;146605;588;46016;-78
2021/11/25 11:57:44;;;;;;;;;19.25;17.75;;;;;14.96;66.15;101474.22;146610;587;45027;-77
2021/11/25 12:00:39;;;;;;;;;35.00;30.50;;;;;14.91;65.79;101462.66;146605;646;46016;-77
2021/11/25 12:03:40;;;;;;;;;62.25;47.25;;;;;14.89;65.97;101460.81;146609;585;46010;-77
2021/11/25 12:07:01;;;;;;;;;63.00;49.75;;;;;13.04;67.36;101147.94;146607;591;46017;-78
2021/11/25 12:09:58;;;;;;;;;36.50;32.00;;;;;14.77;65.91;101458.53;146606;619;46020;-79
2021/11/25 12:13:09;;;;;;;;;58.50;45.25;;;;;14.67;67.13;101453.69;146603;577;47014;-78
2021/11/25 12:16:37;;;;;;;;;48.75;38.00;;;;;14.58;66.71;101448.97;146609;653;46010;-77
2021/11/25 12:19:43;;;;;;;;;28.50;25.25;;;;;14.50;67.07;101452.91;146600;606;46042;-77
2021/11/25 12:22:35;;;;;;;;;27.00;22.75;;;;;14.44;66.60;101452.59;146610;581;46010;-78
2021/11/25 12:25:43;;;;;;;;;25.75;21.00;;;;;14.42;67.37;101443.81;146606;588;46012;-79
2021/11/25 12:28:43;;;;;;;;;20.00;18.00;;;;;14.34;66.85;101446.06;146608;578;46020;-78
2021/11/25 12:31:56;;;;;;;;;21.75;17.00;;;;;13.14;67.97;101233.47;146606;636;46016;-78
2021/11/25 12:34:48;;;;;;;;;27.00;23.00;;;;;13.31;67.15;101276.00;146608;564;46020;-77
2021/11/25 12:38:15;;;;;;;;;21.00;19.25;;;;;13.23;68.27;101264.28;146606;593;46012;-77
2021/11/25 12:41:11;;;;;;;;;19.50;15.25;;;;;14.17;67.14;101429.59;146608;626;46020;-77
2021/11/25 12:44:03;;;;;;;;;17.75;17.00;;;;;14.15;67.57;101438.19;146603;676;47012;-78
2021/11/25 12:46:56;;;;;;;;;26.25;22.75;;;;;14.12;68.23;101436.31;146608;662;46010;-77
2021/11/25 12:49:48;;;;;;;;;21.50;20.25;;;;;14.11;68.38;101439.72;146605;596;46017;-77
2021/11/25 12:52:40;;;;;;;;;22.50;20.25;;;;;14.10;68.37;101454.50;146610;612;45020;-78
2021/11/25 12:55:32;;;;;;;;;23.00;17.25;;;;;14.10;68.52;101440.56;146606;608;46016;-78
2021/11/25 12:58:32;;;;;;;;;37.75;31.75;;;;;14.10;68.50;101440.56;146611;609;45021;-78
2021/11/25 13:01:35;;;;;;;;;35.25;30.50;;;;;14.11;68.20;101437.13;146604;566;47014;-78
2021/11/25 13:04:28;;;;;;;;;33.50;27.00;;;;;14.09;67.30;101430.97;146607;564;46021;-78
2021/11/25 13:07:21;;;;;;;;;32.25;30.25;;;;;14.05;67.07;101421.22;146604;569;46914;-77
2021/11/25 13:10:36;;;;;;;;;30.25;26.75;;;;;12.14;68.72;101098.41;146604;573;47010;-77
2021/11/25 13:13:29;;;;;;;;;30.00;27.00;;;;;14.02;68.58;101429.78;146604;654;46016;-76
2021/11/25 13:16:23;;;;;;;;;28.75;26.25;;;;;14.03;68.51;101423.72;146608;563;46010;-77